sensor_id;sensor_type;location;lat;lon;timestamp;P1;durP1;ratioP1;P2;durP2;ratioP2
16660;SDS011;8444;52.012;5.048;2023-08-17T00:02:16;4.43;;;1.98;;
16660;SDS011;8444;52.012;5.048;2023-08-17T00:04:41;4.70;;;2.00;;
16660;SDS011;8444;52.012;5.048;2023-08-17T00:07:06;4.40;;;2.10;;
16660;SDS011;8444;52.012;5.048;2023-08-17T00:09:32;5.43;;;2.13;;
16660;SDS011;8444;52.012;5.048;2023-08-17T00:11:57;2.05;;;1.52;;
16660;SDS011;8444;52.012;5.048;2023-08-17T00:14:22;4.13;;;1.80;;
16660;SDS011;8444;52.012;5.048;2023-08-17T00:16:50;4.82;;;1.80;;
16660;SDS011;8444;52.012;5.048;2023-08-17T00:19:16;3.85;;;1.85;;
16660;SDS011;8444;52.012;5.048;2023-08-17T00:21:41;20.83;;;1.90;;
16660;SDS011;8444;52.012;5.048;2023-08-17T00:24:07;5.32;;;1.83;;
16660;SDS011;8444;52.012;5.048;2023-08-17T00:26:32;2.63;;;1.52;;
16660;SDS011;8444;52.012;5.048;2023-08-17T00:28:57;1.95;;;1.40;;
16660;SDS011;8444;52.012;5.048;2023-08-17T00:31:22;2.75;;;1.83;;
16660;SDS011;8444;52.012;5.048;2023-08-17T00:33:48;4.50;;;2.22;;
16660;SDS011;8444;52.012;5.048;2023-08-17T00:36:13;3.22;;;2.22;;
16660;SDS011;8444;52.012;5.048;2023-08-17T00:38:38;3.20;;;2.05;;
16660;SDS011;8444;52.012;5.048;2023-08-17T00:41:03;6.13;;;1.70;;
16660;SDS011;8444;52.012;5.048;2023-08-17T00:43:28;5.20;;;1.98;;
16660;SDS011;8444;52.012;5.048;2023-08-17T00:45:54;3.88;;;2.17;;
16660;SDS011;8444;52.012;5.048;2023-08-17T00:48:19;4.25;;;1.67;;
16660;SDS011;8444;52.012;5.048;2023-08-17T00:50:45;5.43;;;2.00;;
16660;SDS011;8444;52.012;5.048;2023-08-17T00:53:13;4.18;;;1.83;;
16660;SDS011;8444;52.012;5.048;2023-08-17T00:55:41;3.53;;;2.03;;
16660;SDS011;8444;52.012;5.048;2023-08-17T00:58:06;3.88;;;1.70;;
16660;SDS011;8444;52.012;5.048;2023-08-17T01:00:31;4.72;;;2.00;;
16660;SDS011;8444;52.012;5.048;2023-08-17T01:02:57;2.58;;;1.70;;
16660;SDS011;8444;52.012;5.048;2023-08-17T01:05:23;5.60;;;2.40;;
16660;SDS011;8444;52.012;5.048;2023-08-17T01:07:48;4.43;;;2.20;;
16660;SDS011;8444;52.012;5.048;2023-08-17T01:10:13;2.97;;;1.70;;
16660;SDS011;8444;52.012;5.048;2023-08-17T01:12:44;5.38;;;1.80;;
16660;SDS011;8444;52.012;5.048;2023-08-17T01:15:21;1.70;;;1.30;;
16660;SDS011;8444;52.012;5.048;2023-08-17T01:18:23;5.63;;;1.67;;
16660;SDS011;8444;52.012;5.048;2023-08-17T01:20:40;2.50;;;1.70;;
16660;SDS011;8444;52.012;5.048;2023-08-17T01:23:05;3.90;;;1.80;;
16660;SDS011;8444;52.012;5.048;2023-08-17T01:25:31;3.53;;;1.85;;
16660;SDS011;8444;52.012;5.048;2023-08-17T01:28:01;4.72;;;2.25;;
16660;SDS011;8444;52.012;5.048;2023-08-17T01:30:26;6.53;;;2.05;;
16660;SDS011;8444;52.012;5.048;2023-08-17T01:32:56;13.27;;;2.50;;
16660;SDS011;8444;52.012;5.048;2023-08-17T01:37:51;2.00;;;1.75;;
16660;SDS011;8444;52.012;5.048;2023-08-17T01:40:17;3.60;;;1.75;;
16660;SDS011;8444;52.012;5.048;2023-08-17T01:42:43;6.13;;;2.03;;
16660;SDS011;8444;52.012;5.048;2023-08-17T01:45:08;5.57;;;1.60;;
16660;SDS011;8444;52.012;5.048;2023-08-17T01:47:34;3.83;;;1.70;;
16660;SDS011;8444;52.012;5.048;2023-08-17T01:50:00;3.22;;;2.05;;
16660;SDS011;8444;52.012;5.048;2023-08-17T01:52:26;8.38;;;2.28;;
16660;SDS011;8444;52.012;5.048;2023-08-17T01:54:52;3.42;;;1.73;;
16660;SDS011;8444;52.012;5.048;2023-08-17T01:57:17;9.57;;;2.10;;
16660;SDS011;8444;52.012;5.048;2023-08-17T01:59:43;7.10;;;1.58;;
16660;SDS011;8444;52.012;5.048;2023-08-17T02:02:08;3.53;;;1.88;;
16660;SDS011;8444;52.012;5.048;2023-08-17T02:04:33;4.18;;;1.90;;
16660;SDS011;8444;52.012;5.048;2023-08-17T02:06:59;6.55;;;1.58;;
16660;SDS011;8444;52.012;5.048;2023-08-17T02:09:24;4.38;;;2.28;;
16660;SDS011;8444;52.012;5.048;2023-08-17T02:11:49;2.05;;;1.88;;
16660;SDS011;8444;52.012;5.048;2023-08-17T02:14:14;6.05;;;1.77;;
16660;SDS011;8444;52.012;5.048;2023-08-17T02:16:39;3.08;;;1.70;;
16660;SDS011;8444;52.012;5.048;2023-08-17T02:19:05;1.30;;;1.20;;
16660;SDS011;8444;52.012;5.048;2023-08-17T02:21:30;4.68;;;2.03;;
16660;SDS011;8444;52.012;5.048;2023-08-17T02:23:55;9.65;;;1.83;;
16660;SDS011;8444;52.012;5.048;2023-08-17T02:26:20;2.60;;;1.90;;
16660;SDS011;8444;52.012;5.048;2023-08-17T02:28:46;2.58;;;1.98;;
16660;SDS011;8444;52.012;5.048;2023-08-17T02:31:11;5.22;;;2.08;;
16660;SDS011;8444;52.012;5.048;2023-08-17T02:33:36;4.88;;;3.08;;
16660;SDS011;8444;52.012;5.048;2023-08-17T02:36:02;4.68;;;2.10;;
16660;SDS011;8444;52.012;5.048;2023-08-17T02:38:27;3.00;;;1.83;;
16660;SDS011;8444;52.012;5.048;2023-08-17T02:40:52;6.00;;;1.90;;
16660;SDS011;8444;52.012;5.048;2023-08-17T02:43:18;4.20;;;1.90;;
16660;SDS011;8444;52.012;5.048;2023-08-17T02:45:43;7.28;;;2.15;;
16660;SDS011;8444;52.012;5.048;2023-08-17T02:48:09;5.82;;;1.65;;
16660;SDS011;8444;52.012;5.048;2023-08-17T02:50:35;4.35;;;2.38;;
16660;SDS011;8444;52.012;5.048;2023-08-17T02:53:00;4.20;;;1.80;;
16660;SDS011;8444;52.012;5.048;2023-08-17T02:55:27;4.03;;;2.17;;
16660;SDS011;8444;52.012;5.048;2023-08-17T02:57:52;3.92;;;1.90;;
16660;SDS011;8444;52.012;5.048;2023-08-17T03:00:17;5.15;;;2.25;;
16660;SDS011;8444;52.012;5.048;2023-08-17T03:02:42;2.58;;;2.05;;
16660;SDS011;8444;52.012;5.048;2023-08-17T03:05:07;3.03;;;2.00;;
16660;SDS011;8444;52.012;5.048;2023-08-17T03:07:33;2.70;;;1.85;;
16660;SDS011;8444;52.012;5.048;2023-08-17T03:09:58;2.40;;;1.80;;
16660;SDS011;8444;52.012;5.048;2023-08-17T03:12:23;4.22;;;2.40;;
16660;SDS011;8444;52.012;5.048;2023-08-17T03:14:48;6.43;;;1.77;;
16660;SDS011;8444;52.012;5.048;2023-08-17T03:17:13;5.60;;;2.10;;
16660;SDS011;8444;52.012;5.048;2023-08-17T03:19:39;9.13;;;2.38;;
16660;SDS011;8444;52.012;5.048;2023-08-17T03:22:04;3.70;;;1.88;;
16660;SDS011;8444;52.012;5.048;2023-08-17T03:24:29;4.35;;;2.33;;
16660;SDS011;8444;52.012;5.048;2023-08-17T03:26:54;9.13;;;2.03;;
16660;SDS011;8444;52.012;5.048;2023-08-17T03:29:20;3.05;;;1.95;;
16660;SDS011;8444;52.012;5.048;2023-08-17T03:31:45;5.57;;;2.05;;
16660;SDS011;8444;52.012;5.048;2023-08-17T03:34:11;4.70;;;2.30;;
16660;SDS011;8444;52.012;5.048;2023-08-17T03:36:36;3.55;;;1.85;;
16660;SDS011;8444;52.012;5.048;2023-08-17T03:39:01;3.88;;;1.75;;
16660;SDS011;8444;52.012;5.048;2023-08-17T03:41:26;4.45;;;2.00;;
16660;SDS011;8444;52.012;5.048;2023-08-17T03:43:52;4.25;;;1.73;;
16660;SDS011;8444;52.012;5.048;2023-08-17T03:46:17;2.55;;;1.77;;
16660;SDS011;8444;52.012;5.048;2023-08-17T03:48:42;10.35;;;2.20;;
16660;SDS011;8444;52.012;5.048;2023-08-17T03:51:07;3.90;;;1.83;;
16660;SDS011;8444;52.012;5.048;2023-08-17T03:53:32;7.18;;;2.42;;
16660;SDS011;8444;52.012;5.048;2023-08-17T03:55:58;2.67;;;1.80;;
16660;SDS011;8444;52.012;5.048;2023-08-17T03:58:23;5.38;;;1.67;;
16660;SDS011;8444;52.012;5.048;2023-08-17T04:00:51;6.97;;;1.90;;
16660;SDS011;8444;52.012;5.048;2023-08-17T04:03:17;8.15;;;1.80;;
16660;SDS011;8444;52.012;5.048;2023-08-17T04:05:42;3.47;;;1.58;;
16660;SDS011;8444;52.012;5.048;2023-08-17T04:08:08;5.28;;;2.05;;
16660;SDS011;8444;52.012;5.048;2023-08-17T04:10:33;5.47;;;1.95;;
16660;SDS011;8444;52.012;5.048;2023-08-17T04:12:58;3.63;;;1.95;;
16660;SDS011;8444;52.012;5.048;2023-08-17T04:15:23;3.25;;;1.90;;
16660;SDS011;8444;52.012;5.048;2023-08-17T04:17:49;4.13;;;2.03;;
16660;SDS011;8444;52.012;5.048;2023-08-17T04:20:14;3.33;;;1.90;;
16660;SDS011;8444;52.012;5.048;2023-08-17T04:22:39;3.67;;;1.80;;
16660;SDS011;8444;52.012;5.048;2023-08-17T04:25:04;4.70;;;2.00;;
16660;SDS011;8444;52.012;5.048;2023-08-17T04:27:30;4.53;;;2.35;;
16660;SDS011;8444;52.012;5.048;2023-08-17T04:29:56;3.33;;;1.80;;
16660;SDS011;8444;52.012;5.048;2023-08-17T04:32:22;3.75;;;1.60;;
16660;SDS011;8444;52.012;5.048;2023-08-17T04:34:47;2.95;;;1.90;;
16660;SDS011;8444;52.012;5.048;2023-08-17T04:37:13;4.78;;;2.00;;
16660;SDS011;8444;52.012;5.048;2023-08-17T04:39:38;5.90;;;1.73;;
16660;SDS011;8444;52.012;5.048;2023-08-17T04:42:04;3.88;;;1.83;;
16660;SDS011;8444;52.012;5.048;2023-08-17T04:44:29;8.25;;;1.80;;
16660;SDS011;8444;52.012;5.048;2023-08-17T04:46:54;3.33;;;2.13;;
16660;SDS011;8444;52.012;5.048;2023-08-17T04:49:20;5.18;;;1.70;;
16660;SDS011;8444;52.012;5.048;2023-08-17T04:51:45;3.45;;;1.50;;
16660;SDS011;8444;52.012;5.048;2023-08-17T04:54:10;5.25;;;2.08;;
16660;SDS011;8444;52.012;5.048;2023-08-17T04:56:35;6.00;;;1.88;;
16660;SDS011;8444;52.012;5.048;2023-08-17T04:59:00;4.53;;;1.98;;
16660;SDS011;8444;52.012;5.048;2023-08-17T05:01:26;3.65;;;1.90;;
16660;SDS011;8444;52.012;5.048;2023-08-17T05:03:51;3.63;;;1.90;;
16660;SDS011;8444;52.012;5.048;2023-08-17T05:06:16;8.02;;;1.90;;
16660;SDS011;8444;52.012;5.048;2023-08-17T05:08:42;6.93;;;2.58;;
16660;SDS011;8444;52.012;5.048;2023-08-17T05:11:07;4.75;;;1.83;;
16660;SDS011;8444;52.012;5.048;2023-08-17T05:13:32;3.47;;;1.35;;
16660;SDS011;8444;52.012;5.048;2023-08-17T05:15:57;4.28;;;1.92;;
16660;SDS011;8444;52.012;5.048;2023-08-17T05:18:22;3.67;;;1.90;;
16660;SDS011;8444;52.012;5.048;2023-08-17T05:20:48;2.72;;;1.73;;
16660;SDS011;8444;52.012;5.048;2023-08-17T05:23:13;4.60;;;1.50;;
16660;SDS011;8444;52.012;5.048;2023-08-17T05:25:38;3.88;;;1.45;;
16660;SDS011;8444;52.012;5.048;2023-08-17T05:28:03;5.00;;;2.25;;
16660;SDS011;8444;52.012;5.048;2023-08-17T05:30:29;1.95;;;1.35;;
16660;SDS011;8444;52.012;5.048;2023-08-17T05:32:54;6.57;;;1.95;;
16660;SDS011;8444;52.012;5.048;2023-08-17T05:35:19;4.80;;;1.60;;
16660;SDS011;8444;52.012;5.048;2023-08-17T05:37:44;5.15;;;1.63;;
16660;SDS011;8444;52.012;5.048;2023-08-17T05:40:10;5.25;;;1.63;;
16660;SDS011;8444;52.012;5.048;2023-08-17T05:42:35;7.40;;;1.95;;
16660;SDS011;8444;52.012;5.048;2023-08-17T05:45:01;3.45;;;1.60;;
16660;SDS011;8444;52.012;5.048;2023-08-17T05:47:26;4.72;;;1.80;;
16660;SDS011;8444;52.012;5.048;2023-08-17T05:49:51;1.95;;;1.42;;
16660;SDS011;8444;52.012;5.048;2023-08-17T05:52:16;3.50;;;1.65;;
16660;SDS011;8444;52.012;5.048;2023-08-17T05:54:41;4.90;;;1.85;;
16660;SDS011;8444;52.012;5.048;2023-08-17T05:57:07;2.90;;;1.50;;
16660;SDS011;8444;52.012;5.048;2023-08-17T05:59:33;5.72;;;1.58;;
16660;SDS011;8444;52.012;5.048;2023-08-17T06:01:58;3.30;;;1.85;;
16660;SDS011;8444;52.012;5.048;2023-08-17T06:04:23;3.05;;;1.98;;
16660;SDS011;8444;52.012;5.048;2023-08-17T06:06:49;5.20;;;2.40;;
16660;SDS011;8444;52.012;5.048;2023-08-17T06:09:14;5.63;;;1.70;;
16660;SDS011;8444;52.012;5.048;2023-08-17T06:11:39;4.22;;;1.88;;
16660;SDS011;8444;52.012;5.048;2023-08-17T06:14:05;2.92;;;1.48;;
16660;SDS011;8444;52.012;5.048;2023-08-17T06:16:30;4.13;;;2.20;;
16660;SDS011;8444;52.012;5.048;2023-08-17T06:18:56;5.85;;;1.80;;
16660;SDS011;8444;52.012;5.048;2023-08-17T06:21:21;5.68;;;1.80;;
16660;SDS011;8444;52.012;5.048;2023-08-17T06:23:47;3.40;;;1.60;;
16660;SDS011;8444;52.012;5.048;2023-08-17T06:26:12;2.17;;;1.52;;
16660;SDS011;8444;52.012;5.048;2023-08-17T06:28:37;3.35;;;1.60;;
16660;SDS011;8444;52.012;5.048;2023-08-17T06:31:02;2.95;;;1.38;;
16660;SDS011;8444;52.012;5.048;2023-08-17T06:33:27;5.45;;;1.60;;
16660;SDS011;8444;52.012;5.048;2023-08-17T06:35:53;5.15;;;1.73;;
16660;SDS011;8444;52.012;5.048;2023-08-17T06:38:18;7.65;;;1.67;;
16660;SDS011;8444;52.012;5.048;2023-08-17T06:40:44;5.78;;;2.10;;
16660;SDS011;8444;52.012;5.048;2023-08-17T06:43:10;3.80;;;1.60;;
16660;SDS011;8444;52.012;5.048;2023-08-17T06:45:35;3.85;;;1.35;;
16660;SDS011;8444;52.012;5.048;2023-08-17T06:48:00;5.03;;;1.70;;
16660;SDS011;8444;52.012;5.048;2023-08-17T06:50:25;7.07;;;1.67;;
16660;SDS011;8444;52.012;5.048;2023-08-17T06:52:51;6.40;;;1.80;;
16660;SDS011;8444;52.012;5.048;2023-08-17T06:55:17;2.92;;;1.67;;
16660;SDS011;8444;52.012;5.048;2023-08-17T06:57:42;3.90;;;1.77;;
16660;SDS011;8444;52.012;5.048;2023-08-17T07:00:08;6.57;;;2.10;;
16660;SDS011;8444;52.012;5.048;2023-08-17T07:02:33;2.97;;;1.73;;
16660;SDS011;8444;52.012;5.048;2023-08-17T07:04:59;3.45;;;1.50;;
16660;SDS011;8444;52.012;5.048;2023-08-17T07:07:24;5.35;;;1.92;;
16660;SDS011;8444;52.012;5.048;2023-08-17T07:09:49;3.95;;;1.60;;
16660;SDS011;8444;52.012;5.048;2023-08-17T07:12:15;5.18;;;1.92;;
16660;SDS011;8444;52.012;5.048;2023-08-17T07:14:40;4.40;;;1.30;;
16660;SDS011;8444;52.012;5.048;2023-08-17T07:17:05;4.18;;;1.55;;
16660;SDS011;8444;52.012;5.048;2023-08-17T07:19:30;3.13;;;1.50;;
16660;SDS011;8444;52.012;5.048;2023-08-17T07:21:56;4.30;;;2.08;;
16660;SDS011;8444;52.012;5.048;2023-08-17T07:24:21;5.20;;;1.83;;
16660;SDS011;8444;52.012;5.048;2023-08-17T07:26:46;6.45;;;1.80;;
16660;SDS011;8444;52.012;5.048;2023-08-17T07:29:11;5.13;;;1.60;;
16660;SDS011;8444;52.012;5.048;2023-08-17T07:31:37;4.13;;;1.60;;
16660;SDS011;8444;52.012;5.048;2023-08-17T07:34:03;5.00;;;1.90;;
16660;SDS011;8444;52.012;5.048;2023-08-17T07:36:29;4.13;;;1.63;;
16660;SDS011;8444;52.012;5.048;2023-08-17T07:38:54;4.28;;;1.70;;
16660;SDS011;8444;52.012;5.048;2023-08-17T07:41:19;5.00;;;2.08;;
16660;SDS011;8444;52.012;5.048;2023-08-17T07:43:44;5.30;;;1.65;;
16660;SDS011;8444;52.012;5.048;2023-08-17T07:46:09;5.90;;;1.70;;
16660;SDS011;8444;52.012;5.048;2023-08-17T07:48:35;4.00;;;2.00;;
16660;SDS011;8444;52.012;5.048;2023-08-17T07:51:00;8.27;;;2.20;;
16660;SDS011;8444;52.012;5.048;2023-08-17T07:53:25;4.70;;;1.92;;
16660;SDS011;8444;52.012;5.048;2023-08-17T07:55:50;4.75;;;1.52;;
16660;SDS011;8444;52.012;5.048;2023-08-17T07:58:16;4.47;;;1.52;;
16660;SDS011;8444;52.012;5.048;2023-08-17T08:00:41;6.80;;;1.63;;
16660;SDS011;8444;52.012;5.048;2023-08-17T08:03:06;3.13;;;1.42;;
16660;SDS011;8444;52.012;5.048;2023-08-17T08:05:31;4.63;;;1.70;;
16660;SDS011;8444;52.012;5.048;2023-08-17T08:07:57;2.35;;;1.60;;
16660;SDS011;8444;52.012;5.048;2023-08-17T08:10:22;2.55;;;1.52;;
16660;SDS011;8444;52.012;5.048;2023-08-17T08:12:47;12.95;;;2.28;;
16660;SDS011;8444;52.012;5.048;2023-08-17T08:15:12;3.85;;;2.05;;
16660;SDS011;8444;52.012;5.048;2023-08-17T08:17:38;4.68;;;1.75;;
16660;SDS011;8444;52.012;5.048;2023-08-17T08:20:03;4.40;;;1.50;;
16660;SDS011;8444;52.012;5.048;2023-08-17T08:22:29;5.57;;;1.50;;
16660;SDS011;8444;52.012;5.048;2023-08-17T08:24:54;5.15;;;1.80;;
16660;SDS011;8444;52.012;5.048;2023-08-17T08:27:19;3.13;;;1.90;;
16660;SDS011;8444;52.012;5.048;2023-08-17T08:29:44;2.75;;;1.33;;
16660;SDS011;8444;52.012;5.048;2023-08-17T08:32:10;4.70;;;1.45;;
16660;SDS011;8444;52.012;5.048;2023-08-17T08:34:35;2.38;;;1.38;;
16660;SDS011;8444;52.012;5.048;2023-08-17T08:37:00;1.80;;;1.00;;
16660;SDS011;8444;52.012;5.048;2023-08-17T08:39:26;5.80;;;1.30;;
16660;SDS011;8444;52.012;5.048;2023-08-17T08:41:51;4.82;;;1.70;;
16660;SDS011;8444;52.012;5.048;2023-08-17T08:44:17;3.70;;;1.95;;
16660;SDS011;8444;52.012;5.048;2023-08-17T08:46:42;3.15;;;1.45;;
16660;SDS011;8444;52.012;5.048;2023-08-17T08:49:10;2.72;;;1.20;;
16660;SDS011;8444;52.012;5.048;2023-08-17T08:51:35;6.00;;;1.50;;
16660;SDS011;8444;52.012;5.048;2023-08-17T08:54:02;3.10;;;1.40;;
16660;SDS011;8444;52.012;5.048;2023-08-17T08:56:33;1.70;;;1.20;;
16660;SDS011;8444;52.012;5.048;2023-08-17T08:59:02;3.83;;;1.83;;
16660;SDS011;8444;52.012;5.048;2023-08-17T09:01:30;4.00;;;1.38;;
16660;SDS011;8444;52.012;5.048;2023-08-17T09:03:55;3.58;;;1.60;;
16660;SDS011;8444;52.012;5.048;2023-08-17T09:06:21;4.63;;;1.88;;
16660;SDS011;8444;52.012;5.048;2023-08-17T09:08:48;5.53;;;2.22;;
16660;SDS011;8444;52.012;5.048;2023-08-17T09:11:14;5.13;;;1.45;;
16660;SDS011;8444;52.012;5.048;2023-08-17T09:13:39;4.97;;;1.52;;
16660;SDS011;8444;52.012;5.048;2023-08-17T09:16:04;4.75;;;1.65;;
16660;SDS011;8444;52.012;5.048;2023-08-17T09:18:30;3.33;;;1.88;;
16660;SDS011;8444;52.012;5.048;2023-08-17T09:20:56;3.05;;;1.45;;
16660;SDS011;8444;52.012;5.048;2023-08-17T09:23:21;3.23;;;1.77;;
16660;SDS011;8444;52.012;5.048;2023-08-17T09:25:47;2.78;;;1.85;;
16660;SDS011;8444;52.012;5.048;2023-08-17T09:28:13;2.65;;;1.55;;
16660;SDS011;8444;52.012;5.048;2023-08-17T09:33:14;4.22;;;1.98;;
16660;SDS011;8444;52.012;5.048;2023-08-17T09:35:40;5.78;;;1.63;;
16660;SDS011;8444;52.012;5.048;2023-08-17T09:38:06;3.10;;;1.73;;
16660;SDS011;8444;52.012;5.048;2023-08-17T09:40:31;5.57;;;1.70;;
16660;SDS011;8444;52.012;5.048;2023-08-17T09:42:56;3.13;;;1.53;;
16660;SDS011;8444;52.012;5.048;2023-08-17T09:45:21;2.83;;;1.42;;
16660;SDS011;8444;52.012;5.048;2023-08-17T09:47:47;4.88;;;1.90;;
16660;SDS011;8444;52.012;5.048;2023-08-17T09:50:12;4.78;;;1.98;;
16660;SDS011;8444;52.012;5.048;2023-08-17T09:52:38;4.78;;;1.45;;
16660;SDS011;8444;52.012;5.048;2023-08-17T09:55:03;4.15;;;1.50;;
16660;SDS011;8444;52.012;5.048;2023-08-17T09:57:30;3.50;;;1.88;;
16660;SDS011;8444;52.012;5.048;2023-08-17T09:59:55;7.10;;;1.83;;
16660;SDS011;8444;52.012;5.048;2023-08-17T10:02:22;6.50;;;2.13;;
16660;SDS011;8444;52.012;5.048;2023-08-17T10:04:52;2.72;;;1.88;;
16660;SDS011;8444;52.012;5.048;2023-08-17T10:07:21;3.95;;;1.98;;
16660;SDS011;8444;52.012;5.048;2023-08-17T10:10:02;2.10;;;1.50;;
16660;SDS011;8444;52.012;5.048;2023-08-17T10:12:28;3.97;;;1.88;;
16660;SDS011;8444;52.012;5.048;2023-08-17T10:14:57;4.30;;;2.08;;
16660;SDS011;8444;52.012;5.048;2023-08-17T10:17:27;3.10;;;2.08;;
16660;SDS011;8444;52.012;5.048;2023-08-17T10:19:59;4.25;;;1.80;;
16660;SDS011;8444;52.012;5.048;2023-08-17T10:22:28;5.07;;;1.73;;
16660;SDS011;8444;52.012;5.048;2023-08-17T10:24:57;2.25;;;1.80;;
16660;SDS011;8444;52.012;5.048;2023-08-17T10:27:23;4.00;;;1.92;;
16660;SDS011;8444;52.012;5.048;2023-08-17T10:29:49;8.25;;;1.92;;
16660;SDS011;8444;52.012;5.048;2023-08-17T10:32:15;3.10;;;1.92;;
16660;SDS011;8444;52.012;5.048;2023-08-17T10:34:41;3.42;;;2.20;;
16660;SDS011;8444;52.012;5.048;2023-08-17T10:37:06;4.13;;;1.60;;
16660;SDS011;8444;52.012;5.048;2023-08-17T10:39:32;4.40;;;1.70;;
16660;SDS011;8444;52.012;5.048;2023-08-17T10:41:58;5.03;;;2.13;;
16660;SDS011;8444;52.012;5.048;2023-08-17T10:47:20;3.53;;;2.65;;
16660;SDS011;8444;52.012;5.048;2023-08-17T10:49:45;3.85;;;1.65;;
16660;SDS011;8444;52.012;5.048;2023-08-17T10:52:12;6.22;;;1.95;;
16660;SDS011;8444;52.012;5.048;2023-08-17T10:54:41;7.13;;;1.92;;
16660;SDS011;8444;52.012;5.048;2023-08-17T11:02:36;3.10;;;1.80;;
16660;SDS011;8444;52.012;5.048;2023-08-17T11:05:02;3.45;;;1.73;;
16660;SDS011;8444;52.012;5.048;2023-08-17T11:07:29;2.47;;;1.48;;
16660;SDS011;8444;52.012;5.048;2023-08-17T11:10:10;8.73;;;2.15;;
16660;SDS011;8444;52.012;5.048;2023-08-17T11:12:35;3.47;;;2.22;;
16660;SDS011;8444;52.012;5.048;2023-08-17T11:15:00;3.78;;;1.92;;
16660;SDS011;8444;52.012;5.048;2023-08-17T11:17:26;3.53;;;1.80;;
16660;SDS011;8444;52.012;5.048;2023-08-17T11:19:52;4.00;;;1.70;;
16660;SDS011;8444;52.012;5.048;2023-08-17T11:22:17;6.63;;;2.17;;
16660;SDS011;8444;52.012;5.048;2023-08-17T11:24:42;5.45;;;2.33;;
16660;SDS011;8444;52.012;5.048;2023-08-17T11:27:08;6.32;;;2.00;;
16660;SDS011;8444;52.012;5.048;2023-08-17T11:29:34;4.18;;;1.95;;
16660;SDS011;8444;52.012;5.048;2023-08-17T11:31:59;5.43;;;2.15;;
16660;SDS011;8444;52.012;5.048;2023-08-17T11:34:24;6.97;;;1.85;;
16660;SDS011;8444;52.012;5.048;2023-08-17T11:36:50;5.63;;;1.80;;
16660;SDS011;8444;52.012;5.048;2023-08-17T11:39:15;4.57;;;2.17;;
16660;SDS011;8444;52.012;5.048;2023-08-17T11:41:40;4.80;;;1.90;;
16660;SDS011;8444;52.012;5.048;2023-08-17T11:44:06;3.00;;;1.98;;
16660;SDS011;8444;52.012;5.048;2023-08-17T11:46:32;3.60;;;2.10;;
16660;SDS011;8444;52.012;5.048;2023-08-17T11:49:00;3.58;;;2.20;;
16660;SDS011;8444;52.012;5.048;2023-08-17T11:51:29;10.20;;;1.80;;
16660;SDS011;8444;52.012;5.048;2023-08-17T11:53:58;5.90;;;2.17;;
16660;SDS011;8444;52.012;5.048;2023-08-17T11:56:23;5.93;;;2.85;;
16660;SDS011;8444;52.012;5.048;2023-08-17T11:58:48;6.97;;;2.10;;
16660;SDS011;8444;52.012;5.048;2023-08-17T12:01:13;5.67;;;2.57;;
16660;SDS011;8444;52.012;5.048;2023-08-17T12:03:40;6.22;;;2.70;;
16660;SDS011;8444;52.012;5.048;2023-08-17T12:06:06;5.97;;;2.38;;
16660;SDS011;8444;52.012;5.048;2023-08-17T12:08:32;7.97;;;3.00;;
16660;SDS011;8444;52.012;5.048;2023-08-17T12:10:58;10.20;;;2.13;;
16660;SDS011;8444;52.012;5.048;2023-08-17T12:13:32;6.00;;;2.57;;
16660;SDS011;8444;52.012;5.048;2023-08-17T12:15:58;4.80;;;1.90;;
16660;SDS011;8444;52.012;5.048;2023-08-17T12:18:24;5.28;;;2.22;;
16660;SDS011;8444;52.012;5.048;2023-08-17T12:20:53;4.93;;;2.67;;
16660;SDS011;8444;52.012;5.048;2023-08-17T12:23:18;6.93;;;2.90;;
16660;SDS011;8444;52.012;5.048;2023-08-17T12:25:43;5.70;;;3.00;;
16660;SDS011;8444;52.012;5.048;2023-08-17T12:28:12;5.72;;;2.33;;
16660;SDS011;8444;52.012;5.048;2023-08-17T12:30:37;8.50;;;3.08;;
16660;SDS011;8444;52.012;5.048;2023-08-17T12:33:02;9.70;;;3.75;;
16660;SDS011;8444;52.012;5.048;2023-08-17T12:35:29;6.32;;;2.05;;
16660;SDS011;8444;52.012;5.048;2023-08-17T12:37:54;4.88;;;2.92;;
16660;SDS011;8444;52.012;5.048;2023-08-17T12:40:20;8.00;;;2.88;;
16660;SDS011;8444;52.012;5.048;2023-08-17T12:42:45;4.80;;;2.50;;
16660;SDS011;8444;52.012;5.048;2023-08-17T12:45:11;8.27;;;2.53;;
16660;SDS011;8444;52.012;5.048;2023-08-17T12:47:36;4.10;;;2.70;;
16660;SDS011;8444;52.012;5.048;2023-08-17T12:50:02;4.97;;;2.30;;
16660;SDS011;8444;52.012;5.048;2023-08-17T12:52:28;5.78;;;2.53;;
16660;SDS011;8444;52.012;5.048;2023-08-17T12:54:53;5.38;;;2.50;;
16660;SDS011;8444;52.012;5.048;2023-08-17T12:57:19;4.40;;;2.63;;
16660;SDS011;8444;52.012;5.048;2023-08-17T12:59:44;3.92;;;2.22;;
16660;SDS011;8444;52.012;5.048;2023-08-17T13:02:09;6.93;;;3.17;;
16660;SDS011;8444;52.012;5.048;2023-08-17T13:04:34;6.90;;;3.07;;
16660;SDS011;8444;52.012;5.048;2023-08-17T13:07:01;5.53;;;2.75;;
16660;SDS011;8444;52.012;5.048;2023-08-17T13:09:26;5.73;;;3.10;;
16660;SDS011;8444;52.012;5.048;2023-08-17T13:11:51;3.47;;;2.77;;
16660;SDS011;8444;52.012;5.048;2023-08-17T13:14:16;6.65;;;2.63;;
16660;SDS011;8444;52.012;5.048;2023-08-17T13:16:42;4.00;;;2.47;;
16660;SDS011;8444;52.012;5.048;2023-08-17T13:19:07;6.38;;;2.50;;
16660;SDS011;8444;52.012;5.048;2023-08-17T13:21:32;8.02;;;3.10;;
16660;SDS011;8444;52.012;5.048;2023-08-17T13:23:57;6.00;;;2.57;;
16660;SDS011;8444;52.012;5.048;2023-08-17T13:26:23;4.55;;;2.60;;
16660;SDS011;8444;52.012;5.048;2023-08-17T13:28:48;7.32;;;2.78;;
16660;SDS011;8444;52.012;5.048;2023-08-17T13:31:13;5.88;;;3.20;;
16660;SDS011;8444;52.012;5.048;2023-08-17T13:33:38;7.60;;;3.43;;
16660;SDS011;8444;52.012;5.048;2023-08-17T13:36:04;8.77;;;3.03;;
16660;SDS011;8444;52.012;5.048;2023-08-17T13:38:29;7.22;;;3.22;;
16660;SDS011;8444;52.012;5.048;2023-08-17T13:40:54;9.05;;;3.15;;
16660;SDS011;8444;52.012;5.048;2023-08-17T13:43:19;5.18;;;2.50;;
16660;SDS011;8444;52.012;5.048;2023-08-17T13:45:45;5.15;;;2.80;;
16660;SDS011;8444;52.012;5.048;2023-08-17T13:48:10;4.38;;;2.90;;
16660;SDS011;8444;52.012;5.048;2023-08-17T13:50:36;7.32;;;3.45;;
16660;SDS011;8444;52.012;5.048;2023-08-17T13:53:02;7.00;;;2.72;;
16660;SDS011;8444;52.012;5.048;2023-08-17T13:55:27;4.70;;;2.90;;
16660;SDS011;8444;52.012;5.048;2023-08-17T13:57:54;5.28;;;2.75;;
16660;SDS011;8444;52.012;5.048;2023-08-17T14:00:20;5.82;;;3.08;;
16660;SDS011;8444;52.012;5.048;2023-08-17T14:02:45;6.07;;;2.97;;
16660;SDS011;8444;52.012;5.048;2023-08-17T14:05:11;5.53;;;3.08;;
16660;SDS011;8444;52.012;5.048;2023-08-17T14:07:36;5.38;;;2.65;;
16660;SDS011;8444;52.012;5.048;2023-08-17T14:10:01;5.65;;;2.97;;
16660;SDS011;8444;52.012;5.048;2023-08-17T14:12:27;3.70;;;2.67;;
16660;SDS011;8444;52.012;5.048;2023-08-17T14:14:52;6.05;;;2.80;;
16660;SDS011;8444;52.012;5.048;2023-08-17T14:17:17;6.25;;;2.97;;
16660;SDS011;8444;52.012;5.048;2023-08-17T14:19:43;3.67;;;2.38;;
16660;SDS011;8444;52.012;5.048;2023-08-17T14:22:08;3.78;;;2.67;;
16660;SDS011;8444;52.012;5.048;2023-08-17T14:24:33;6.63;;;2.90;;
16660;SDS011;8444;52.012;5.048;2023-08-17T14:26:58;5.50;;;3.40;;
16660;SDS011;8444;52.012;5.048;2023-08-17T14:29:24;5.18;;;3.17;;
16660;SDS011;8444;52.012;5.048;2023-08-17T14:31:49;5.78;;;2.80;;
16660;SDS011;8444;52.012;5.048;2023-08-17T14:34:14;6.05;;;3.40;;
16660;SDS011;8444;52.012;5.048;2023-08-17T14:36:40;5.75;;;2.90;;
16660;SDS011;8444;52.012;5.048;2023-08-17T14:39:05;6.78;;;3.03;;
16660;SDS011;8444;52.012;5.048;2023-08-17T14:41:31;3.75;;;2.47;;
16660;SDS011;8444;52.012;5.048;2023-08-17T14:43:59;4.95;;;3.22;;
16660;SDS011;8444;52.012;5.048;2023-08-17T14:46:25;6.47;;;3.15;;
16660;SDS011;8444;52.012;5.048;2023-08-17T14:48:50;5.07;;;2.60;;
16660;SDS011;8444;52.012;5.048;2023-08-17T14:51:15;4.25;;;2.22;;
16660;SDS011;8444;52.012;5.048;2023-08-17T14:53:40;5.50;;;2.75;;
16660;SDS011;8444;52.012;5.048;2023-08-17T14:56:06;5.25;;;2.83;;
16660;SDS011;8444;52.012;5.048;2023-08-17T14:58:31;2.97;;;2.20;;
16660;SDS011;8444;52.012;5.048;2023-08-17T15:00:56;2.60;;;2.00;;
16660;SDS011;8444;52.012;5.048;2023-08-17T15:03:21;3.50;;;2.47;;
16660;SDS011;8444;52.012;5.048;2023-08-17T15:05:46;6.65;;;2.38;;